sensor_id;sensor_type;location;lat;lon;timestamp;pressure;altitude;pressure_sealevel;temperature;humidity
8140;BME280;4111;50.972;7.072;2023-08-07T00:01:10;100706.38;;;14.32;100.00
8140;BME280;4111;50.972;7.072;2023-08-07T00:03:36;100716.22;;;14.33;100.00
8140;BME280;4111;50.972;7.072;2023-08-07T00:06:02;100700.38;;;14.35;100.00
8140;BME280;4111;50.972;7.072;2023-08-07T00:08:29;100720.03;;;14.32;100.00
8140;BME280;4111;50.972;7.072;2023-08-07T00:11:05;100712.66;;;14.33;100.00
8140;BME280;4111;50.972;7.072;2023-08-07T00:13:31;100707.72;;;14.29;100.00
8140;BME280;4111;50.972;7.072;2023-08-07T00:15:58;100720.56;;;14.29;100.00
8140;BME280;4111;50.972;7.072;2023-08-07T00:18:24;100714.56;;;14.22;100.00
8140;BME280;4111;50.972;7.072;2023-08-07T00:20:51;100721.38;;;14.19;100.00
8140;BME280;4111;50.972;7.072;2023-08-07T00:23:17;100724.38;;;14.18;100.00
8140;BME280;4111;50.972;7.072;2023-08-07T00:25:43;100716.75;;;14.25;100.00
8140;BME280;4111;50.972;7.072;2023-08-07T00:28:10;100729.28;;;14.16;100.00
8140;BME280;4111;50.972;7.072;2023-08-07T00:30:36;100728.75;;;14.14;100.00
8140;BME280;4111;50.972;7.072;2023-08-07T00:33:02;100734.22;;;14.19;100.00
8140;BME280;4111;50.972;7.072;2023-08-07T00:35:29;100729.03;;;14.17;100.00
8140;BME280;4111;50.972;7.072;2023-08-07T00:37:55;100731.47;;;14.14;100.00
8140;BME280;4111;50.972;7.072;2023-08-07T00:40:22;100732.31;;;14.14;100.00
8140;BME280;4111;50.972;7.072;2023-08-07T00:42:48;100733.94;;;14.15;100.00
8140;BME280;4111;50.972;7.072;2023-08-07T00:45:15;100736.91;;;14.03;100.00
8140;BME280;4111;50.972;7.072;2023-08-07T00:47:44;100741.03;;;14.06;100.00
8140;BME280;4111;50.972;7.072;2023-08-07T00:50:11;100754.41;;;14.07;100.00
8140;BME280;4111;50.972;7.072;2023-08-07T00:52:38;100746.75;;;14.09;100.00
8140;BME280;4111;50.972;7.072;2023-08-07T00:55:04;100744.03;;;14.09;100.00
8140;BME280;4111;50.972;7.072;2023-08-07T00:57:31;100743.75;;;14.01;100.00
8140;BME280;4111;50.972;7.072;2023-08-07T00:59:59;100745.13;;;13.98;100.00
8140;BME280;4111;50.972;7.072;2023-08-07T01:02:25;100743.47;;;14.02;100.00
8140;BME280;4111;50.972;7.072;2023-08-07T01:04:52;100744.56;;;14.01;100.00
8140;BME280;4111;50.972;7.072;2023-08-07T01:07:19;100746.75;;;13.99;100.00
8140;BME280;4111;50.972;7.072;2023-08-07T01:09:45;100750.56;;;13.98;100.00
8140;BME280;4111;50.972;7.072;2023-08-07T01:12:16;100741.84;;;14.01;100.00
8140;BME280;4111;50.972;7.072;2023-08-07T01:14:58;100754.38;;;13.97;100.00
8140;BME280;4111;50.972;7.072;2023-08-07T01:17:28;100747.78;;;13.88;100.00
8140;BME280;4111;50.972;7.072;2023-08-07T01:19:56;100764.16;;;13.88;100.00
8140;BME280;4111;50.972;7.072;2023-08-07T01:22:23;100757.91;;;13.82;100.00
8140;BME280;4111;50.972;7.072;2023-08-07T01:24:50;100766.38;;;13.91;100.00
8140;BME280;4111;50.972;7.072;2023-08-07T01:30:04;100764.22;;;13.98;100.00
8140;BME280;4111;50.972;7.072;2023-08-07T01:35:22;100759.31;;;14.00;100.00
8140;BME280;4111;50.972;7.072;2023-08-07T01:37:54;100763.13;;;13.94;100.00
8140;BME280;4111;50.972;7.072;2023-08-07T01:40:22;100766.38;;;13.91;100.00
8140;BME280;4111;50.972;7.072;2023-08-07T01:42:49;100764.16;;;13.83;100.00
8140;BME280;4111;50.972;7.072;2023-08-07T01:45:26;100762.00;;;13.85;100.00
8140;BME280;4111;50.972;7.072;2023-08-07T01:47:53;100768.81;;;13.82;100.00
8140;BME280;4111;50.972;7.072;2023-08-07T01:50:21;100770.16;;;13.80;100.00
8140;BME280;4111;50.972;7.072;2023-08-07T01:53:25;100768.53;;;13.79;100.00
8140;BME280;4111;50.972;7.072;2023-08-07T01:55:52;100766.34;;;13.81;100.00
8140;BME280;4111;50.972;7.072;2023-08-07T01:58:18;100773.44;;;13.82;100.00
8140;BME280;4111;50.972;7.072;2023-08-07T02:00:44;100771.25;;;13.84;100.00
8140;BME280;4111;50.972;7.072;2023-08-07T02:03:11;100770.44;;;13.83;100.00
8140;BME280;4111;50.972;7.072;2023-08-07T02:05:37;100777.25;;;13.81;100.00
8140;BME280;4111;50.972;7.072;2023-08-07T02:08:04;100769.91;;;13.86;100.00
8140;BME280;4111;50.972;7.072;2023-08-07T02:10:30;100781.38;;;13.88;100.00
8140;BME280;4111;50.972;7.072;2023-08-07T02:12:57;100777.81;;;13.88;100.00
8140;BME280;4111;50.972;7.072;2023-08-07T02:15:24;100791.75;;;13.86;100.00
8140;BME280;4111;50.972;7.072;2023-08-07T02:17:51;100789.81;;;13.82;100.00
8140;BME280;4111;50.972;7.072;2023-08-07T02:20:17;100792.00;;;13.85;100.00
8140;BME280;4111;50.972;7.072;2023-08-07T02:22:43;100790.66;;;13.82;100.00
8140;BME280;4111;50.972;7.072;2023-08-07T02:25:10;100788.69;;;13.78;100.00
8140;BME280;4111;50.972;7.072;2023-08-07T02:27:36;100800.72;;;13.82;100.00
8140;BME280;4111;50.972;7.072;2023-08-07T02:30:03;100796.09;;;13.82;100.00
8140;BME280;4111;50.972;7.072;2023-08-07T02:32:30;100791.44;;;13.73;100.00
8140;BME280;4111;50.972;7.072;2023-08-07T02:34:56;100801.78;;;13.76;100.00
8140;BME280;4111;50.972;7.072;2023-08-07T02:37:23;100809.19;;;13.80;100.00
8140;BME280;4111;50.972;7.072;2023-08-07T02:39:50;100807.53;;;13.79;100.00
8140;BME280;4111;50.972;7.072;2023-08-07T02:42:16;100806.72;;;13.79;100.00
8140;BME280;4111;50.972;7.072;2023-08-07T02:44:43;100803.75;;;13.80;100.00
8140;BME280;4111;50.972;7.072;2023-08-07T02:47:09;100802.34;;;13.73;100.00
8140;BME280;4111;50.972;7.072;2023-08-07T02:49:36;100809.13;;;13.70;100.00
8140;BME280;4111;50.972;7.072;2023-08-07T02:52:02;100810.53;;;13.73;100.00
8140;BME280;4111;50.972;7.072;2023-08-07T02:54:29;100799.31;;;13.69;100.00
8140;BME280;4111;50.972;7.072;2023-08-07T02:56:57;100791.44;;;13.73;100.00
8140;BME280;4111;50.972;7.072;2023-08-07T02:59:23;100795.53;;;13.75;100.00
8140;BME280;4111;50.972;7.072;2023-08-07T03:01:50;100798.00;;;13.77;100.00
8140;BME280;4111;50.972;7.072;2023-08-07T03:04:16;100787.03;;;13.72;100.00
8140;BME280;4111;50.972;7.072;2023-08-07T03:06:43;100784.31;;;13.72;100.00
8140;BME280;4111;50.972;7.072;2023-08-07T03:09:09;100795.78;;;13.68;100.00
8140;BME280;4111;50.972;7.072;2023-08-07T03:11:36;100793.06;;;13.74;100.00
8140;BME280;4111;50.972;7.072;2023-08-07T03:14:03;100793.06;;;13.74;100.00
8140;BME280;4111;50.972;7.072;2023-08-07T03:16:29;100794.13;;;13.67;100.00
8140;BME280;4111;50.972;7.072;2023-08-07T03:18:56;100794.63;;;13.64;100.00
8140;BME280;4111;50.972;7.072;2023-08-07T03:21:22;100793.03;;;13.68;100.00
8140;BME280;4111;50.972;7.072;2023-08-07T03:23:49;100795.22;;;13.66;100.00
8140;BME280;4111;50.972;7.072;2023-08-07T03:26:15;100784.81;;;13.63;100.00
8140;BME280;4111;50.972;7.072;2023-08-07T03:28:45;100781.50;;;13.56;100.00
8140;BME280;4111;50.972;7.072;2023-08-07T03:31:14;100783.69;;;13.54;100.00
8140;BME280;4111;50.972;7.072;2023-08-07T03:33:40;100791.91;;;13.59;100.00
8140;BME280;4111;50.972;7.072;2023-08-07T03:36:07;100793.53;;;13.60;100.00
8140;BME280;4111;50.972;7.072;2023-08-07T03:38:33;100795.75;;;13.63;100.00
8140;BME280;4111;50.972;7.072;2023-08-07T03:41:00;100786.44;;;13.59;100.00
8140;BME280;4111;50.972;7.072;2023-08-07T03:43:26;100788.63;;;13.57;100.00
8140;BME280;4111;50.972;7.072;2023-08-07T03:45:56;100788.31;;;13.54;100.00
8140;BME280;4111;50.972;7.072;2023-08-07T03:48:27;100790.53;;;13.57;100.00
8140;BME280;4111;50.972;7.072;2023-08-07T03:51:01;100798.72;;;13.62;100.00
8140;BME280;4111;50.972;7.072;2023-08-07T03:53:29;100791.09;;;13.59;100.00
8140;BME280;4111;50.972;7.072;2023-08-07T03:55:56;100806.63;;;13.58;100.00
8140;BME280;4111;50.972;7.072;2023-08-07T03:58:22;100809.38;;;13.63;100.00
8140;BME280;4111;50.972;7.072;2023-08-07T04:00:50;100808.31;;;13.69;100.00
8140;BME280;4111;50.972;7.072;2023-08-07T04:03:19;100808.31;;;13.69;100.00
8140;BME280;4111;50.972;7.072;2023-08-07T04:05:46;100811.00;;;13.64;100.00
8140;BME280;4111;50.972;7.072;2023-08-07T04:08:12;100802.28;;;13.62;100.00
8140;BME280;4111;50.972;7.072;2023-08-07T04:10:39;100797.66;;;13.63;100.00
8140;BME280;4111;50.972;7.072;2023-08-07T04:13:05;100809.63;;;13.62;100.00
8140;BME280;4111;50.972;7.072;2023-08-07T04:15:32;100805.81;;;13.58;100.00
8140;BME280;4111;50.972;7.072;2023-08-07T04:17:58;100806.06;;;13.56;100.00
8140;BME280;4111;50.972;7.072;2023-08-07T04:20:25;100816.47;;;13.59;100.00
8140;BME280;4111;50.972;7.072;2023-08-07T04:22:51;100823.78;;;13.54;100.00
8140;BME280;4111;50.972;7.072;2023-08-07T04:25:17;100824.03;;;13.52;100.00
8140;BME280;4111;50.972;7.072;2023-08-07T04:27:44;100813.69;;;13.49;100.00
8140;BME280;4111;50.972;7.072;2023-08-07T04:30:10;100809.84;;;13.50;100.00
8140;BME280;4111;50.972;7.072;2023-08-07T04:32:37;100819.13;;;13.49;100.00
8140;BME280;4111;50.972;7.072;2023-08-07T04:35:04;100825.69;;;13.53;100.00
8140;BME280;4111;50.972;7.072;2023-08-07T04:37:31;100828.44;;;13.58;100.00
8140;BME280;4111;50.972;7.072;2023-08-07T04:39:57;100822.47;;;13.61;100.00
8140;BME280;4111;50.972;7.072;2023-08-07T04:42:24;100818.38;;;13.59;100.00
8140;BME280;4111;50.972;7.072;2023-08-07T04:44:50;100827.38;;;13.59;100.00
8140;BME280;4111;50.972;7.072;2023-08-07T04:47:16;100825.72;;;13.58;100.00
8140;BME280;4111;50.972;7.072;2023-08-07T04:49:43;100829.56;;;13.62;100.00
8140;BME280;4111;50.972;7.072;2023-08-07T04:52:10;100826.56;;;13.59;100.00
8140;BME280;4111;50.972;7.072;2023-08-07T04:54:51;100830.91;;;13.60;100.00
8140;BME280;4111;50.972;7.072;2023-08-07T04:57:17;100831.75;;;13.65;100.00
8140;BME280;4111;50.972;7.072;2023-08-07T04:59:44;100836.97;;;13.67;100.00
8140;BME280;4111;50.972;7.072;2023-08-07T05:02:10;100833.69;;;13.65;100.00
8140;BME280;4111;50.972;7.072;2023-08-07T05:04:37;100832.03;;;13.64;100.00
8140;BME280;4111;50.972;7.072;2023-08-07T05:07:03;100835.31;;;13.66;100.00
8140;BME280;4111;50.972;7.072;2023-08-07T05:09:30;100828.22;;;13.70;100.00
8140;BME280;4111;50.972;7.072;2023-08-07T05:11:56;100836.41;;;13.70;100.00
8140;BME280;4111;50.972;7.072;2023-08-07T05:14:23;100844.34;;;13.72;100.00
8140;BME280;4111;50.972;7.072;2023-08-07T05:16:50;100825.25;;;13.66;100.00
8140;BME280;4111;50.972;7.072;2023-08-07T05:19:16;100834.53;;;13.71;100.00
8140;BME280;4111;50.972;7.072;2023-08-07T05:21:43;100829.13;;;13.81;100.00
8140;BME280;4111;50.972;7.072;2023-08-07T05:24:09;100829.13;;;13.81;100.00
8140;BME280;4111;50.972;7.072;2023-08-07T05:26:36;100835.13;;;13.83;100.00
8140;BME280;4111;50.972;7.072;2023-08-07T05:29:02;100840.34;;;13.89;100.00
8140;BME280;4111;50.972;7.072;2023-08-07T05:31:29;100838.16;;;13.92;100.00
8140;BME280;4111;50.972;7.072;2023-08-07T05:33:57;100839.00;;;13.92;100.00
8140;BME280;4111;50.972;7.072;2023-08-07T05:36:23;100848.84;;;13.98;100.00
8140;BME280;4111;50.972;7.072;2023-08-07T05:38:49;100844.75;;;14.01;100.00
8140;BME280;4111;50.972;7.072;2023-08-07T05:41:16;100839.81;;;13.98;100.00
8140;BME280;4111;50.972;7.072;2023-08-07T05:43:43;100847.19;;;13.97;100.00
8140;BME280;4111;50.972;7.072;2023-08-07T05:46:09;100851.25;;;13.89;100.00
8140;BME280;4111;50.972;7.072;2023-08-07T05:48:36;100852.06;;;13.90;100.00
8140;BME280;4111;50.972;7.072;2023-08-07T05:51:02;100847.72;;;13.89;100.00
8140;BME280;4111;50.972;7.072;2023-08-07T05:53:29;100851.00;;;13.91;100.00
8140;BME280;4111;50.972;7.072;2023-08-07T05:55:55;100851.25;;;13.89;100.00
8140;BME280;4111;50.972;7.072;2023-08-07T05:58:22;100858.34;;;13.85;100.00
8140;BME280;4111;50.972;7.072;2023-08-07T06:00:48;100854.78;;;13.85;100.00
8140;BME280;4111;50.972;7.072;2023-08-07T06:03:15;100855.31;;;13.82;100.00
8140;BME280;4111;50.972;7.072;2023-08-07T06:05:41;100861.59;;;13.82;100.00
8140;BME280;4111;50.972;7.072;2023-08-07T06:08:08;100854.50;;;13.81;100.00
8140;BME280;4111;50.972;7.072;2023-08-07T06:10:34;100847.13;;;13.77;100.00
8140;BME280;4111;50.972;7.072;2023-08-07T06:13:01;100859.66;;;13.78;100.00
8140;BME280;4111;50.972;7.072;2023-08-07T06:15:29;100861.81;;;13.76;100.00
8140;BME280;4111;50.972;7.072;2023-08-07T06:17:56;100863.50;;;13.77;100.00
8140;BME280;4111;50.972;7.072;2023-08-07T06:20:22;100865.94;;;13.78;100.00
8140;BME280;4111;50.972;7.072;2023-08-07T06:22:49;100865.72;;;13.85;100.00
8140;BME280;4111;50.972;7.072;2023-08-07T06:25:15;100870.06;;;13.81;100.00
8140;BME280;4111;50.972;7.072;2023-08-07T06:27:42;100866.25;;;13.87;100.00
8140;BME280;4111;50.972;7.072;2023-08-07T06:30:08;100870.06;;;13.86;100.00
8140;BME280;4111;50.972;7.072;2023-08-07T06:32:35;100874.19;;;13.88;100.00
8140;BME280;4111;50.972;7.072;2023-08-07T06:35:03;100870.91;;;13.86;100.00
8140;BME280;4111;50.972;7.072;2023-08-07T06:37:30;100862.97;;;13.90;100.00
8140;BME280;4111;50.972;7.072;2023-08-07T06:39:57;100876.63;;;13.85;100.00
8140;BME280;4111;50.972;7.072;2023-08-07T06:42:23;100882.09;;;13.90;100.00
8140;BME280;4111;50.972;7.072;2023-08-07T06:44:50;100883.72;;;13.86;100.00
8140;BME280;4111;50.972;7.072;2023-08-07T06:47:16;100877.97;;;13.82;100.00
8140;BME280;4111;50.972;7.072;2023-08-07T06:49:42;100893.22;;;13.78;100.00
8140;BME280;4111;50.972;7.072;2023-08-07T06:52:09;100886.94;;;13.78;100.00
8140;BME280;4111;50.972;7.072;2023-08-07T06:54:35;100892.94;;;13.75;100.00
8140;BME280;4111;50.972;7.072;2023-08-07T06:57:02;100900.53;;;13.67;100.00
8140;BME280;4111;50.972;7.072;2023-08-07T06:59:28;100898.06;;;13.66;100.00
8140;BME280;4111;50.972;7.072;2023-08-07T07:01:55;100895.63;;;13.69;100.00
8140;BME280;4111;50.972;7.072;2023-08-07T07:04:22;100902.19;;;13.68;100.00
8140;BME280;4111;50.972;7.072;2023-08-07T07:06:48;100901.63;;;13.66;100.00
8140;BME280;4111;50.972;7.072;2023-08-07T07:09:14;100905.44;;;13.65;100.00
8140;BME280;4111;50.972;7.072;2023-08-07T07:11:43;100916.84;;;13.62;100.00
8140;BME280;4111;50.972;7.072;2023-08-07T07:14:10;100915.78;;;13.63;100.00
8140;BME280;4111;50.972;7.072;2023-08-07T07:16:37;100909.22;;;13.64;100.00
8140;BME280;4111;50.972;7.072;2023-08-07T07:19:04;100922.31;;;13.62;100.00
8140;BME280;4111;50.972;7.072;2023-08-07T07:21:32;100915.22;;;13.61;100.00
8140;BME280;4111;50.972;7.072;2023-08-07T07:23:59;100930.25;;;13.64;100.00
8140;BME280;4111;50.972;7.072;2023-08-07T07:26:25;100931.34;;;13.63;100.00
8140;BME280;4111;50.972;7.072;2023-08-07T07:28:52;100940.91;;;13.65;100.00
8140;BME280;4111;50.972;7.072;2023-08-07T07:31:18;100933.22;;;13.62;100.00
8140;BME280;4111;50.972;7.072;2023-08-07T07:33:45;100937.66;;;13.68;100.00
8140;BME280;4111;50.972;7.072;2023-08-07T07:36:18;100942.59;;;13.72;100.00
8140;BME280;4111;50.972;7.072;2023-08-07T07:38:46;100942.31;;;13.73;100.00
8140;BME280;4111;50.972;7.072;2023-08-07T07:41:14;100946.97;;;13.73;100.00
8140;BME280;4111;50.972;7.072;2023-08-07T07:43:41;100944.75;;;13.69;100.00
8140;BME280;4111;50.972;7.072;2023-08-07T07:46:07;100945.88;;;13.74;100.00
8140;BME280;4111;50.972;7.072;2023-08-07T07:48:34;100939.91;;;13.77;100.00
8140;BME280;4111;50.972;7.072;2023-08-07T07:51:04;100959.00;;;13.77;100.00
8140;BME280;4111;50.972;7.072;2023-08-07T07:53:31;100959.50;;;13.74;100.00
8140;BME280;4111;50.972;7.072;2023-08-07T07:55:57;100964.97;;;13.74;100.00
8140;BME280;4111;50.972;7.072;2023-08-07T07:58:24;100963.91;;;13.75;100.00
8140;BME280;4111;50.972;7.072;2023-08-07T08:00:50;100963.09;;;13.79;100.00
8140;BME280;4111;50.972;7.072;2023-08-07T08:03:20;100961.75;;;13.82;100.00
8140;BME280;4111;50.972;7.072;2023-08-07T08:05:51;100970.78;;;13.82;100.00
8140;BME280;4111;50.972;7.072;2023-08-07T08:08:18;100971.59;;;13.83;100.00
8140;BME280;4111;50.972;7.072;2023-08-07T08:10:45;100971.59;;;13.83;100.00
8140;BME280;4111;50.972;7.072;2023-08-07T08:13:14;100987.97;;;13.83;100.00
8140;BME280;4111;50.972;7.072;2023-08-07T08:15:41;100988.00;;;13.88;100.00
8140;BME280;4111;50.972;7.072;2023-08-07T08:18:07;100990.22;;;13.91;100.00
8140;BME280;4111;50.972;7.072;2023-08-07T08:20:34;100991.88;;;13.97;100.00
8140;BME280;4111;50.972;7.072;2023-08-07T08:23:01;100994.09;;;14.00;100.00
8140;BME280;4111;50.972;7.072;2023-08-07T08:25:28;101002.31;;;14.05;100.00
8140;BME280;4111;50.972;7.072;2023-08-07T08:27:54;101005.56;;;14.02;100.00
8140;BME280;4111;50.972;7.072;2023-08-07T08:30:21;101012.09;;;14.01;100.00
8140;BME280;4111;50.972;7.072;2023-08-07T08:32:47;101012.09;;;14.01;100.00
8140;BME280;4111;50.972;7.072;2023-08-07T08:35:14;101019.78;;;14.04;100.00
8140;BME280;4111;50.972;7.072;2023-08-07T08:37:40;101027.72;;;14.06;100.00
8140;BME280;4111;50.972;7.072;2023-08-07T08:40:08;101031.25;;;14.06;100.00
8140;BME280;4111;50.972;7.072;2023-08-07T08:42:39;101028.00;;;14.09;100.00
8140;BME280;4111;50.972;7.072;2023-08-07T08:45:09;101037.88;;;14.16;100.00
8140;BME280;4111;50.972;7.072;2023-08-07T08:47:38;101038.97;;;14.15;100.00
8140;BME280;4111;50.972;7.072;2023-08-07T08:50:08;101041.69;;;14.15;100.00
8140;BME280;4111;50.972;7.072;2023-08-07T08:52:37;101040.59;;;14.16;100.00
8140;BME280;4111;50.972;7.072;2023-08-07T08:55:04;101045.53;;;14.19;100.00
8140;BME280;4111;50.972;7.072;2023-08-07T08:57:33;101053.47;;;14.20;100.00
8140;BME280;4111;50.972;7.072;2023-08-07T09:00:00;101046.13;;;14.26;100.00
8140;BME280;4111;50.972;7.072;2023-08-07T09:02:28;101048.31;;;14.24;100.00
8140;BME280;4111;50.972;7.072;2023-08-07T09:05:09;101054.91;;;14.28;100.00
8140;BME280;4111;50.972;7.072;2023-08-07T09:07:35;101060.66;;;14.37;100.00
8140;BME280;4111;50.972;7.072;2023-08-07T09:10:04;101060.97;;;14.40;100.00
8140;BME280;4111;50.972;7.072;2023-08-07T09:12:32;101060.97;;;14.40;100.00
8140;BME280;4111;50.972;7.072;2023-08-07T09:15:03;101058.78;;;14.42;100.00
8140;BME280;4111;50.972;7.072;2023-08-07T09:17:33;101067.31;;;14.51;100.00
8140;BME280;4111;50.972;7.072;2023-08-07T09:20:01;101064.56;;;14.51;100.00
8140;BME280;4111;50.972;7.072;2023-08-07T09:22:29;101065.69;;;14.55;100.00
8140;BME280;4111;50.972;7.072;2023-08-07T09:24:56;101076.13;;;14.58;100.00
8140;BME280;4111;50.972;7.072;2023-08-07T09:27:26;101085.69;;;14.61;100.00
8140;BME280;4111;50.972;7.072;2023-08-07T09:29:54;101079.72;;;14.64;100.00
8140;BME280;4111;50.972;7.072;2023-08-07T09:32:22;101097.22;;;14.68;100.00
8140;BME280;4111;50.972;7.072;2023-08-07T09:34:51;101077.00;;;14.69;100.00
8140;BME280;4111;50.972;7.072;2023-08-07T09:37:20;101102.13;;;14.66;100.00
8140;BME280;4111;50.972;7.072;2023-08-07T09:39:46;101093.94;;;14.66;100.00
8140;BME280;4111;50.972;7.072;2023-08-07T09:42:16;101105.38;;;14.63;100.00
8140;BME280;4111;50.972;7.072;2023-08-07T09:44:43;101100.47;;;14.65;100.00
8140;BME280;4111;50.972;7.072;2023-08-07T09:47:16;101090.66;;;14.69;100.00
8140;BME280;4111;50.972;7.072;2023-08-07T09:49:44;101102.66;;;14.63;100.00
8140;BME280;4111;50.972;7.072;2023-08-07T09:52:14;101101.03;;;14.67;100.00
8140;BME280;4111;50.972;7.072;2023-08-07T09:54:42;101103.84;;;14.82;100.00
8140;BME280;4111;50.972;7.072;2023-08-07T09:57:08;101102.25;;;14.97;100.00
8140;BME280;4111;50.972;7.072;2023-08-07T09:59:34;101102.56;;;15.00;100.00
8140;BME280;4111;50.972;7.072;2023-08-07T10:02:02;101113.22;;;15.02;100.00
8140;BME280;4111;50.972;7.072;2023-08-07T10:04:29;101115.97;;;15.02;100.00
8140;BME280;4111;50.972;7.072;2023-08-07T10:06:57;101107.75;;;15.02;100.00
8140;BME280;4111;50.972;7.072;2023-08-07T10:09:26;101104.00;;;15.13;100.00
8140;BME280;4111;50.972;7.072;2023-08-07T10:11:54;101114.97;;;15.23;100.00
8140;BME280;4111;50.972;7.072;2023-08-07T10:14:21;101114.72;;;15.35;100.00
8140;BME280;4111;50.972;7.072;2023-08-07T10:16:48;101118.28;;;15.46;100.00
8140;BME280;4111;50.972;7.072;2023-08-07T10:19:15;101114.47;;;15.47;100.00
8140;BME280;4111;50.972;7.072;2023-08-07T10:21:42;101113.41;;;15.53;100.00
8140;BME280;4111;50.972;7.072;2023-08-07T10:24:10;101111.22;;;15.60;100.00
8140;BME280;4111;50.972;7.072;2023-08-07T10:26:43;101114.50;;;15.67;100.00
8140;BME280;4111;50.972;7.072;2023-08-07T10:29:12;101116.72;;;15.71;100.00
8140;BME280;4111;50.972;7.072;2023-08-07T10:31:40;101110.72;;;15.99;100.00
8140;BME280;4111;50.972;7.072;2023-08-07T10:34:09;101120.03;;;16.24;100.00
8140;BME280;4111;50.972;7.072;2023-08-07T10:36:36;101115.63;;;16.38;100.00
8140;BME280;4111;50.972;7.072;2023-08-07T10:39:08;101133.16;;;16.48;100.00
8140;BME280;4111;50.972;7.072;2023-08-07T10:41:45;101117.81;;;16.52;100.00
8140;BME280;4111;50.972;7.072;2023-08-07T10:44:19;101110.13;;;16.59;100.00
8140;BME280;4111;50.972;7.072;2023-08-07T10:46:56;101111.19;;;16.68;100.00
8140;BME280;4111;50.972;7.072;2023-08-07T10:49:37;101108.97;;;16.75;100.00
8140;BME280;4111;50.972;7.072;2023-08-07T10:52:13;101103.47;;;16.80;98.10
8140;BME280;4111;50.972;7.072;2023-08-07T10:54:48;101110.31;;;16.93;96.19
8140;BME280;4111;50.972;7.072;2023-08-07T10:57:17;101109.13;;;17.15;97.32
8140;BME280;4111;50.972;7.072;2023-08-07T11:02:12;101108.19;;;17.40;91.25
8140;BME280;4111;50.972;7.072;2023-08-07T11:04:39;101108.13;;;17.45;87.66
8140;BME280;4111;50.972;7.072;2023-08-07T11:07:06;101124.00;;;17.53;85.67
8140;BME280;4111;50.972;7.072;2023-08-07T11:09:33;101112.13;;;17.63;86.10
8140;BME280;4111;50.972;7.072;2023-08-07T11:12:00;101112.38;;;17.72;85.54
8140;BME280;4111;50.972;7.072;2023-08-07T11:14:26;101115.06;;;17.77;86.69
8140;BME280;4111;50.972;7.072;2023-08-07T11:16:53;101117.81;;;17.77;83.81
8140;BME280;4111;50.972;7.072;2023-08-07T11:19:19;101119.69;;;17.87;83.95
8140;BME280;4111;50.972;7.072;2023-08-07T11:21:47;101122.66;;;17.95;82.69
8140;BME280;4111;50.972;7.072;2023-08-07T11:24:15;101122.59;;;18.00;83.17
8140;BME280;4111;50.972;7.072;2023-08-07T11:26:43;101131.34;;;18.08;83.13
8140;BME280;4111;50.972;7.072;2023-08-07T11:29:13;101125.47;;;18.19;80.81
8140;BME280;4111;50.972;7.072;2023-08-07T11:31:41;101125.91;;;18.32;80.02
8140;BME280;4111;50.972;7.072;2023-08-07T11:34:10;101126.88;;;18.46;78.56
8140;BME280;4111;50.972;7.072;2023-08-07T11:36:42;101117.75;;;18.51;75.13
8140;BME280;4111;50.972;7.072;2023-08-07T11:39:09;101124.88;;;18.52;74.93
8140;BME280;4111;50.972;7.072;2023-08-07T11:41:36;101115.81;;;18.51;73.09
8140;BME280;4111;50.972;7.072;2023-08-07T11:44:02;101124.44;;;18.45;73.05
8140;BME280;4111;50.972;7.072;2023-08-07T11:46:29;101118.44;;;18.37;73.76
8140;BME280;4111;50.972;7.072;2023-08-07T11:48:56;101125.03;;;18.36;74.88
8140;BME280;4111;50.972;7.072;2023-08-07T11:51:23;101126.88;;;18.46;75.37
8140;BME280;4111;50.972;7.072;2023-08-07T11:53:49;101131.94;;;18.63;74.20
8140;BME280;4111;50.972;7.072;2023-08-07T11:56:16;101122.75;;;18.73;72.53
8140;BME280;4111;50.972;7.072;2023-08-07T11:58:45;101123.84;;;18.72;70.28
8140;BME280;4111;50.972;7.072;2023-08-07T12:01:18;101113.09;;;18.75;70.24
8140;BME280;4111;50.972;7.072;2023-08-07T12:03:54;101125.00;;;18.66;68.78
8140;BME280;4111;50.972;7.072;2023-08-07T12:06:23;101127.06;;;18.55;67.95
8140;BME280;4111;50.972;7.072;2023-08-07T12:08:53;101119.88;;;18.59;67.44
8140;BME280;4111;50.972;7.072;2023-08-07T12:11:20;101108.72;;;18.74;67.75
8140;BME280;4111;50.972;7.072;2023-08-07T12:13:48;101119.34;;;18.86;68.00
8140;BME280;4111;50.972;7.072;2023-08-07T12:16:15;101118.97;;;18.93;66.60
8140;BME280;4111;50.972;7.072;2023-08-07T12:18:52;101105.06;;;18.84;65.54
8140;BME280;4111;50.972;7.072;2023-08-07T12:21:21;101110.19;;;18.91;65.25
8140;BME280;4111;50.972;7.072;2023-08-07T12:23:51;101120.13;;;19.11;65.39
8140;BME280;4111;50.972;7.072;2023-08-07T12:26:18;101116.28;;;19.31;64.17
8140;BME280;4111;50.972;7.072;2023-08-07T12:28:44;101125.00;;;19.38;65.26
8140;BME280;4111;50.972;7.072;2023-08-07T12:31:11;101112.28;;;19.42;63.88
8140;BME280;4111;50.972;7.072;2023-08-07T12:33:37;101107.75;;;19.51;63.60
8140;BME280;4111;50.972;7.072;2023-08-07T12:36:04;101108.94;;;19.45;62.38
8140;BME280;4111;50.972;7.072;2023-08-07T12:38:31;101122.75;;;19.40;60.48
8140;BME280;4111;50.972;7.072;2023-08-07T12:40:57;101111.97;;;19.44;59.78
8140;BME280;4111;50.972;7.072;2023-08-07T12:43:24;101120.38;;;19.52;58.24
8140;BME280;4111;50.972;7.072;2023-08-07T12:45:50;101116.53;;;19.53;57.68
8140;BME280;4111;50.972;7.072;2023-08-07T12:48:18;101121.81;;;19.50;58.83
8140;BME280;4111;50.972;7.072;2023-08-07T12:50:46;101119.06;;;19.50;58.34
8140;BME280;4111;50.972;7.072;2023-08-07T12:53:12;101113.44;;;19.55;59.37
8140;BME280;4111;50.972;7.072;2023-08-07T12:55:38;101103.13;;;19.66;59.97
8140;BME280;4111;50.972;7.072;2023-08-07T12:58:05;101114.44;;;19.83;59.49
8140;BME280;4111;50.972;7.072;2023-08-07T13:00:32;101106.69;;;19.85;59.17
8140;BME280;4111;50.972;7.072;2023-08-07T13:02:58;101108.94;;;19.83;58.71
8140;BME280;4111;50.972;7.072;2023-08-07T13:05:28;101118.09;;;19.78;57.18
8140;BME280;4111;50.972;7.072;2023-08-07T13:07:55;101123.22;;;19.85;56.52
8140;BME280;4111;50.972;7.072;2023-08-07T13:10:24;101114.88;;;19.90;55.63
8140;BME280;4111;50.972;7.072;2023-08-07T13:12:51;101109.22;;;20.00;55.61